sensor_id;sensor_type;location;lat;lon;timestamp;pressure;altitude;pressure_sealevel;temperature;humidity
17209;BME280;8720;48.488;9.202;2023-04-19T00:02:17;97492.59;;;14.96;61.39
17209;BME280;8720;48.488;9.202;2023-04-19T00:04:45;97490.06;;;14.93;61.29
17209;BME280;8720;48.488;9.202;2023-04-19T00:07:13;97490.13;;;14.91;61.56
17209;BME280;8720;48.488;9.202;2023-04-19T00:09:41;97484.84;;;14.91;61.67
17209;BME280;8720;48.488;9.202;2023-04-19T00:12:08;97486.63;;;14.91;61.58
17209;BME280;8720;48.488;9.202;2023-04-19T00:14:36;97486.63;;;14.91;61.32
17209;BME280;8720;48.488;9.202;2023-04-19T00:17:03;97489.25;;;14.91;61.52
17209;BME280;8720;48.488;9.202;2023-04-19T00:19:32;97484.91;;;14.90;61.48
17209;BME280;8720;48.488;9.202;2023-04-19T00:21:59;97485.88;;;14.87;61.54
17209;BME280;8720;48.488;9.202;2023-04-19T00:24:27;97484.09;;;14.88;61.57
17209;BME280;8720;48.488;9.202;2023-04-19T00:26:54;97479.69;;;14.88;61.45
17209;BME280;8720;48.488;9.202;2023-04-19T00:29:22;97483.22;;;14.87;61.36
17209;BME280;8720;48.488;9.202;2023-04-19T00:31:49;97481.59;;;14.83;61.50
17209;BME280;8720;48.488;9.202;2023-04-19T00:34:17;97486.84;;;14.85;61.42
17209;BME280;8720;48.488;9.202;2023-04-19T00:36:47;97478.16;;;14.81;61.46
17209;BME280;8720;48.488;9.202;2023-04-19T00:39:14;97474.69;;;14.81;61.58
17209;BME280;8720;48.488;9.202;2023-04-19T00:41:42;97473.91;;;14.77;61.60
17209;BME280;8720;48.488;9.202;2023-04-19T00:44:09;97467.81;;;14.77;61.49
17209;BME280;8720;48.488;9.202;2023-04-19T00:46:37;97467.81;;;14.77;61.58
17209;BME280;8720;48.488;9.202;2023-04-19T00:49:05;97471.31;;;14.76;61.94
17209;BME280;8720;48.488;9.202;2023-04-19T00:51:33;97466.06;;;14.76;61.61
17209;BME280;8720;48.488;9.202;2023-04-19T00:54:03;97467.03;;;14.73;61.55
17209;BME280;8720;48.488;9.202;2023-04-19T00:56:33;97469.69;;;14.73;61.62
17209;BME280;8720;48.488;9.202;2023-04-19T00:59:01;97464.44;;;14.72;61.59
17209;BME280;8720;48.488;9.202;2023-04-19T01:01:29;97466.22;;;14.71;61.82
17209;BME280;8720;48.488;9.202;2023-04-19T01:03:57;97449.97;;;14.58;61.65
17209;BME280;8720;48.488;9.202;2023-04-19T01:06:25;97457.66;;;14.65;61.73
17209;BME280;8720;48.488;9.202;2023-04-19T01:08:53;97456.84;;;14.63;61.58
17209;BME280;8720;48.488;9.202;2023-04-19T01:11:24;97463.06;;;14.60;61.76
17209;BME280;8720;48.488;9.202;2023-04-19T01:13:52;97460.56;;;14.57;61.98
17209;BME280;8720;48.488;9.202;2023-04-19T01:16:21;97455.38;;;14.54;61.97
17209;BME280;8720;48.488;9.202;2023-04-19T01:18:50;97459.81;;;14.52;61.82
17209;BME280;8720;48.488;9.202;2023-04-19T01:21:17;97453.78;;;14.50;61.92
17209;BME280;8720;48.488;9.202;2023-04-19T01:23:46;97461.66;;;14.50;62.07
17209;BME280;8720;48.488;9.202;2023-04-19T01:26:14;97452.09;;;14.47;61.84
17209;BME280;8720;48.488;9.202;2023-04-19T01:28:42;97446.06;;;14.44;61.86
17209;BME280;8720;48.488;9.202;2023-04-19T01:31:09;97445.19;;;14.43;61.98
17209;BME280;8720;48.488;9.202;2023-04-19T01:33:36;97446.16;;;14.41;62.01
17209;BME280;8720;48.488;9.202;2023-04-19T01:36:08;97442.69;;;14.39;62.22
17209;BME280;8720;48.488;9.202;2023-04-19T01:38:36;97440.94;;;14.39;61.99
17209;BME280;8720;48.488;9.202;2023-04-19T01:41:05;97443.56;;;14.39;62.23
17209;BME280;8720;48.488;9.202;2023-04-19T01:43:32;97438.41;;;14.36;62.43
17209;BME280;8720;48.488;9.202;2023-04-19T01:46:00;97441.94;;;14.35;62.26
17209;BME280;8720;48.488;9.202;2023-04-19T01:48:27;97437.59;;;14.34;62.23
17209;BME280;8720;48.488;9.202;2023-04-19T01:50:54;97432.28;;;14.36;62.19
17209;BME280;8720;48.488;9.202;2023-04-19T01:53:21;97425.28;;;14.35;62.07
17209;BME280;8720;48.488;9.202;2023-04-19T01:55:49;97433.19;;;14.35;62.13
17209;BME280;8720;48.488;9.202;2023-04-19T01:58:18;97438.50;;;14.33;62.00
17209;BME280;8720;48.488;9.202;2023-04-19T02:06:01;97416.75;;;14.28;62.38
17209;BME280;8720;48.488;9.202;2023-04-19T02:08:29;97421.09;;;14.29;62.06
17209;BME280;8720;48.488;9.202;2023-04-19T02:10:56;97414.94;;;14.29;62.46
17209;BME280;8720;48.488;9.202;2023-04-19T02:13:24;97415.88;;;14.28;62.30
17209;BME280;8720;48.488;9.202;2023-04-19T02:15:52;97412.41;;;14.26;62.41
17209;BME280;8720;48.488;9.202;2023-04-19T02:18:19;97407.13;;;14.27;62.06
17209;BME280;8720;48.488;9.202;2023-04-19T02:20:46;97413.19;;;14.29;62.15
17209;BME280;8720;48.488;9.202;2023-04-19T02:23:13;97403.59;;;14.28;62.26
17209;BME280;8720;48.488;9.202;2023-04-19T02:25:41;97401.84;;;14.27;62.10
17209;BME280;8720;48.488;9.202;2023-04-19T02:28:08;97387.09;;;14.22;61.99
17209;BME280;8720;48.488;9.202;2023-04-19T02:30:37;97394.28;;;14.17;61.97
17209;BME280;8720;48.488;9.202;2023-04-19T02:33:04;97403.19;;;14.13;62.29
17209;BME280;8720;48.488;9.202;2023-04-19T02:35:33;97399.78;;;14.09;62.05
17209;BME280;8720;48.488;9.202;2023-04-19T02:38:03;97401.63;;;14.06;62.19
17209;BME280;8720;48.488;9.202;2023-04-19T02:40:30;97397.28;;;14.05;62.46
17209;BME280;8720;48.488;9.202;2023-04-19T02:42:58;97398.25;;;14.02;62.38
17209;BME280;8720;48.488;9.202;2023-04-19T02:45:25;97396.47;;;14.03;62.43
17209;BME280;8720;48.488;9.202;2023-04-19T02:47:55;97394.78;;;14.02;62.34
17209;BME280;8720;48.488;9.202;2023-04-19T02:50:26;97392.16;;;14.00;62.35
17209;BME280;8720;48.488;9.202;2023-04-19T02:52:53;97390.47;;;13.99;62.42
17209;BME280;8720;48.488;9.202;2023-04-19T02:55:22;97379.31;;;13.91;62.38
17209;BME280;8720;48.488;9.202;2023-04-19T02:57:59;97388.03;;;13.93;62.71
17209;BME280;8720;48.488;9.202;2023-04-19T03:00:26;97391.56;;;13.92;62.63
17209;BME280;8720;48.488;9.202;2023-04-19T03:03:04;97383.69;;;13.92;62.53
17209;BME280;8720;48.488;9.202;2023-04-19T03:05:33;97387.16;;;13.93;62.63
17209;BME280;8720;48.488;9.202;2023-04-19T03:08:00;97384.47;;;13.94;62.59
17209;BME280;8720;48.488;9.202;2023-04-19T03:10:28;97388.84;;;13.95;62.61
17209;BME280;8720;48.488;9.202;2023-04-19T03:12:55;97382.66;;;13.96;62.54
17209;BME280;8720;48.488;9.202;2023-04-19T03:15:22;97385.25;;;13.98;62.42
17209;BME280;8720;48.488;9.202;2023-04-19T03:17:50;97381.75;;;13.97;62.78
17209;BME280;8720;48.488;9.202;2023-04-19T03:20:21;97378.25;;;13.97;62.59
17209;BME280;8720;48.488;9.202;2023-04-19T03:22:49;97380.00;;;13.98;62.59
17209;BME280;8720;48.488;9.202;2023-04-19T03:25:17;97377.38;;;13.98;62.50
17209;BME280;8720;48.488;9.202;2023-04-19T03:27:50;97371.13;;;14.00;62.65
17209;BME280;8720;48.488;9.202;2023-04-19T03:30:27;97374.56;;;14.02;62.62
17209;BME280;8720;48.488;9.202;2023-04-19T03:32:54;97376.31;;;14.03;62.77
17209;BME280;8720;48.488;9.202;2023-04-19T03:35:25;97375.31;;;14.06;62.57
17209;BME280;8720;48.488;9.202;2023-04-19T03:38:03;97373.56;;;14.06;62.68
17209;BME280;8720;48.488;9.202;2023-04-19T03:40:32;97358.84;;;14.01;62.11
17209;BME280;8720;48.488;9.202;2023-04-19T03:43:00;97367.34;;;14.09;62.57
17209;BME280;8720;48.488;9.202;2023-04-19T03:45:33;97362.97;;;14.08;62.68
17209;BME280;8720;48.488;9.202;2023-04-19T03:48:01;97356.88;;;14.07;62.38
17209;BME280;8720;48.488;9.202;2023-04-19T03:50:29;97356.91;;;14.06;62.63
17209;BME280;8720;48.488;9.202;2023-04-19T03:52:57;97364.66;;;14.10;62.37
17209;BME280;8720;48.488;9.202;2023-04-19T03:55:24;97361.16;;;14.11;62.28
17209;BME280;8720;48.488;9.202;2023-04-19T03:57:52;97356.63;;;14.15;62.46
17209;BME280;8720;48.488;9.202;2023-04-19T04:00:29;97351.31;;;14.16;62.13
17209;BME280;8720;48.488;9.202;2023-04-19T04:02:59;97356.56;;;14.16;62.06
17209;BME280;8720;48.488;9.202;2023-04-19T04:05:28;97353.25;;;14.11;62.06
17209;BME280;8720;48.488;9.202;2023-04-19T04:07:56;97363.66;;;14.14;61.99
17209;BME280;8720;48.488;9.202;2023-04-19T04:10:25;97365.47;;;14.12;62.07
17209;BME280;8720;48.488;9.202;2023-04-19T04:12:52;97357.66;;;14.11;62.23
17209;BME280;8720;48.488;9.202;2023-04-19T04:15:26;97353.28;;;14.10;62.26
17209;BME280;8720;48.488;9.202;2023-04-19T04:17:55;97359.53;;;14.06;62.28
17209;BME280;8720;48.488;9.202;2023-04-19T04:20:22;97354.41;;;14.03;62.28
17209;BME280;8720;48.488;9.202;2023-04-19T04:22:56;97360.59;;;14.00;62.25
17209;BME280;8720;48.488;9.202;2023-04-19T04:25:24;97359.84;;;13.97;62.40
17209;BME280;8720;48.488;9.202;2023-04-19T04:27:54;97358.13;;;13.96;62.28
17209;BME280;8720;48.488;9.202;2023-04-19T04:30:24;97356.41;;;13.95;62.31
17209;BME280;8720;48.488;9.202;2023-04-19T04:32:52;97358.16;;;13.94;62.27
17209;BME280;8720;48.488;9.202;2023-04-19T04:35:23;97363.44;;;13.94;62.47
17209;BME280;8720;48.488;9.202;2023-04-19T04:37:58;97357.38;;;13.92;62.36
17209;BME280;8720;48.488;9.202;2023-04-19T04:40:25;97360.03;;;13.91;62.29
17209;BME280;8720;48.488;9.202;2023-04-19T04:42:53;97365.78;;;14.03;61.13
17209;BME280;8720;48.488;9.202;2023-04-19T04:45:20;97363.28;;;13.99;61.79
17209;BME280;8720;48.488;9.202;2023-04-19T04:47:49;97359.91;;;13.95;62.19
17209;BME280;8720;48.488;9.202;2023-04-19T04:50:17;97367.91;;;13.92;62.10
17209;BME280;8720;48.488;9.202;2023-04-19T04:52:46;97373.09;;;13.94;62.38
17209;BME280;8720;48.488;9.202;2023-04-19T04:55:23;97371.31;;;13.94;62.25
17209;BME280;8720;48.488;9.202;2023-04-19T04:57:50;97364.34;;;13.93;62.35
17209;BME280;8720;48.488;9.202;2023-04-19T05:00:24;97363.47;;;13.93;62.66
17209;BME280;8720;48.488;9.202;2023-04-19T05:02:58;97363.47;;;13.93;62.31
17209;BME280;8720;48.488;9.202;2023-04-19T05:05:29;97368.75;;;13.93;62.41
17209;BME280;8720;48.488;9.202;2023-04-19T05:07:56;97383.56;;;13.95;62.33
17209;BME280;8720;48.488;9.202;2023-04-19T05:10:25;97371.28;;;13.96;62.42
17209;BME280;8720;48.488;9.202;2023-04-19T05:12:53;97359.91;;;13.95;62.51
17209;BME280;8720;48.488;9.202;2023-04-19T05:15:20;97371.19;;;13.99;62.72
17209;BME280;8720;48.488;9.202;2023-04-19T05:17:51;97379.94;;;13.99;62.54
17209;BME280;8720;48.488;9.202;2023-04-19T05:20:20;97380.81;;;14.00;62.23
17209;BME280;8720;48.488;9.202;2023-04-19T05:22:56;97379.13;;;13.97;62.47
17209;BME280;8720;48.488;9.202;2023-04-19T05:25:26;97365.09;;;13.97;62.23
17209;BME280;8720;48.488;9.202;2023-04-19T05:27:54;97366.84;;;13.98;62.61
17209;BME280;8720;48.488;9.202;2023-04-19T05:30:23;97381.69;;;13.99;62.57
17209;BME280;8720;48.488;9.202;2023-04-19T05:32:50;97382.50;;;14.01;62.43
17209;BME280;8720;48.488;9.202;2023-04-19T05:35:18;97373.75;;;14.00;62.47
17209;BME280;8720;48.488;9.202;2023-04-19T05:37:46;97377.19;;;14.04;62.65
17209;BME280;8720;48.488;9.202;2023-04-19T05:40:13;97382.31;;;14.07;62.79
17209;BME280;8720;48.488;9.202;2023-04-19T05:42:42;97378.75;;;14.09;62.57
17209;BME280;8720;48.488;9.202;2023-04-19T05:45:10;97379.50;;;14.13;62.48
17209;BME280;8720;48.488;9.202;2023-04-19T05:47:40;97390.91;;;14.12;62.35
17209;BME280;8720;48.488;9.202;2023-04-19T05:50:31;97382.28;;;14.08;62.43
17209;BME280;8720;48.488;9.202;2023-04-19T05:53:22;97376.19;;;14.06;62.44
17209;BME280;8720;48.488;9.202;2023-04-19T05:55:51;97381.38;;;14.09;62.57
17209;BME280;8720;48.488;9.202;2023-04-19T05:58:20;97383.94;;;14.11;62.37
17209;BME280;8720;48.488;9.202;2023-04-19T06:00:48;97390.03;;;14.13;62.53
17209;BME280;8720;48.488;9.202;2023-04-19T06:03:18;97387.34;;;14.14;62.53
17209;BME280;8720;48.488;9.202;2023-04-19T06:05:46;97382.06;;;14.14;62.63
17209;BME280;8720;48.488;9.202;2023-04-19T06:08:13;97389.91;;;14.16;62.66
17209;BME280;8720;48.488;9.202;2023-04-19T06:10:42;97386.22;;;14.21;62.44
17209;BME280;8720;48.488;9.202;2023-04-19T06:13:12;97391.41;;;14.24;62.51
17209;BME280;8720;48.488;9.202;2023-04-19T06:15:42;97398.31;;;14.28;62.42
17209;BME280;8720;48.488;9.202;2023-04-19T06:18:09;97394.69;;;14.32;62.54
17209;BME280;8720;48.488;9.202;2023-04-19T06:20:37;97397.13;;;14.38;62.55
17209;BME280;8720;48.488;9.202;2023-04-19T06:23:04;97389.09;;;14.41;62.54
17209;BME280;8720;48.488;9.202;2023-04-19T06:25:32;97397.81;;;14.43;62.18
17209;BME280;8720;48.488;9.202;2023-04-19T06:28:01;97390.72;;;14.45;62.41
17209;BME280;8720;48.488;9.202;2023-04-19T06:30:28;97395.03;;;14.48;62.15
17209;BME280;8720;48.488;9.202;2023-04-19T06:32:57;97398.50;;;14.48;62.11
17209;BME280;8720;48.488;9.202;2023-04-19T06:35:24;97395.03;;;14.48;62.07
17209;BME280;8720;48.488;9.202;2023-04-19T06:37:51;97405.47;;;14.51;62.18
17209;BME280;8720;48.488;9.202;2023-04-19T06:40:21;97413.41;;;14.49;62.12
17209;BME280;8720;48.488;9.202;2023-04-19T06:42:49;97406.53;;;14.45;61.93
17209;BME280;8720;48.488;9.202;2023-04-19T06:45:16;97405.78;;;14.40;61.89
17209;BME280;8720;48.488;9.202;2023-04-19T06:47:43;97399.75;;;14.38;61.93
17209;BME280;8720;48.488;9.202;2023-04-19T06:50:12;97401.56;;;14.36;62.30
17209;BME280;8720;48.488;9.202;2023-04-19T06:52:39;97406.84;;;14.36;62.24
17209;BME280;8720;48.488;9.202;2023-04-19T06:55:08;97405.09;;;14.35;62.39
17209;BME280;8720;48.488;9.202;2023-04-19T06:57:35;97406.03;;;14.34;62.42
17209;BME280;8720;48.488;9.202;2023-04-19T07:00:05;97396.88;;;14.46;60.82
17209;BME280;8720;48.488;9.202;2023-04-19T07:02:33;97392.31;;;14.76;58.03
17209;BME280;8720;48.488;9.202;2023-04-19T07:05:00;97405.75;;;14.68;59.52
17209;BME280;8720;48.488;9.202;2023-04-19T07:07:29;97391.06;;;14.61;60.32
17209;BME280;8720;48.488;9.202;2023-04-19T07:09:58;97393.84;;;14.56;60.61
17209;BME280;8720;48.488;9.202;2023-04-19T07:12:25;97394.59;;;14.60;60.97
17209;BME280;8720;48.488;9.202;2023-04-19T07:14:52;97397.09;;;14.65;61.25
17209;BME280;8720;48.488;9.202;2023-04-19T07:17:22;97400.53;;;14.67;60.86
17209;BME280;8720;48.488;9.202;2023-04-19T07:19:49;97397.09;;;14.65;61.12
17209;BME280;8720;48.488;9.202;2023-04-19T07:22:17;97398.91;;;14.63;61.15
17209;BME280;8720;48.488;9.202;2023-04-19T07:24:45;97399.13;;;14.56;60.98
17209;BME280;8720;48.488;9.202;2023-04-19T07:27:13;97399.13;;;14.56;61.22
17209;BME280;8720;48.488;9.202;2023-04-19T07:29:41;97403.50;;;14.57;61.16
17209;BME280;8720;48.488;9.202;2023-04-19T07:32:08;97398.16;;;14.59;61.32
17209;BME280;8720;48.488;9.202;2023-04-19T07:34:36;97392.16;;;14.55;60.85
17209;BME280;8720;48.488;9.202;2023-04-19T07:37:05;97392.84;;;14.61;61.39
17209;BME280;8720;48.488;9.202;2023-04-19T07:39:33;97388.31;;;14.64;61.60
17209;BME280;8720;48.488;9.202;2023-04-19T07:42:01;97389.06;;;14.69;61.42
17209;BME280;8720;48.488;9.202;2023-04-19T07:44:29;97390.50;;;14.78;61.44
17209;BME280;8720;48.488;9.202;2023-04-19T07:46:56;97392.84;;;14.85;61.26
17209;BME280;8720;48.488;9.202;2023-04-19T07:49:23;97396.16;;;14.92;61.51
17209;BME280;8720;48.488;9.202;2023-04-19T07:51:50;97392.38;;;14.99;61.39
17209;BME280;8720;48.488;9.202;2023-04-19T07:54:18;97391.34;;;15.03;60.95
17209;BME280;8720;48.488;9.202;2023-04-19T07:56:46;97388.66;;;15.04;60.99
17209;BME280;8720;48.488;9.202;2023-04-19T07:59:15;97378.13;;;15.04;60.65
17209;BME280;8720;48.488;9.202;2023-04-19T08:01:42;97380.66;;;15.07;60.82
17209;BME280;8720;48.488;9.202;2023-04-19T08:04:10;97377.09;;;15.08;60.69
17209;BME280;8720;48.488;9.202;2023-04-19T08:06:37;97375.09;;;15.15;61.10
17209;BME280;8720;48.488;9.202;2023-04-19T08:09:05;97382.88;;;15.19;60.71
17209;BME280;8720;48.488;9.202;2023-04-19T08:11:32;97379.97;;;15.25;60.82
17209;BME280;8720;48.488;9.202;2023-04-19T08:14:00;97382.44;;;15.30;60.96
17209;BME280;8720;48.488;9.202;2023-04-19T08:16:28;97372.59;;;15.35;60.63
17209;BME280;8720;48.488;9.202;2023-04-19T08:18:56;97368.91;;;15.39;60.55
17209;BME280;8720;48.488;9.202;2023-04-19T08:21:23;97365.19;;;15.46;60.54
17209;BME280;8720;48.488;9.202;2023-04-19T08:23:51;97367.47;;;15.55;60.36
17209;BME280;8720;48.488;9.202;2023-04-19T08:26:19;97360.34;;;15.57;60.65
17209;BME280;8720;48.488;9.202;2023-04-19T08:28:47;97364.25;;;15.70;60.23
17209;BME280;8720;48.488;9.202;2023-04-19T08:31:16;97361.38;;;15.76;60.43
17209;BME280;8720;48.488;9.202;2023-04-19T08:33:46;97365.53;;;15.82;60.00
17209;BME280;8720;48.488;9.202;2023-04-19T08:36:14;97369.72;;;15.87;60.19
17209;BME280;8720;48.488;9.202;2023-04-19T08:38:42;97358.91;;;15.93;59.90
17209;BME280;8720;48.488;9.202;2023-04-19T08:41:11;97353.31;;;16.02;60.11
17209;BME280;8720;48.488;9.202;2023-04-19T08:43:42;97358.84;;;16.16;60.05
17209;BME280;8720;48.488;9.202;2023-04-19T08:46:11;97361.66;;;16.33;59.67
17209;BME280;8720;48.488;9.202;2023-04-19T08:48:39;97357.66;;;16.45;59.49
17209;BME280;8720;48.488;9.202;2023-04-19T08:51:11;97360.81;;;16.55;59.40
17209;BME280;8720;48.488;9.202;2023-04-19T08:53:39;97363.88;;;16.66;59.14
17209;BME280;8720;48.488;9.202;2023-04-19T08:56:07;97356.34;;;16.77;59.21
17209;BME280;8720;48.488;9.202;2023-04-19T08:58:35;97363.50;;;16.95;59.04
17209;BME280;8720;48.488;9.202;2023-04-19T09:01:05;97355.94;;;17.06;58.69
17209;BME280;8720;48.488;9.202;2023-04-19T09:03:33;97356.50;;;17.12;58.38
17209;BME280;8720;48.488;9.202;2023-04-19T09:06:01;97350.13;;;17.18;58.30
17209;BME280;8720;48.488;9.202;2023-04-19T09:08:30;97347.84;;;17.29;58.51
17209;BME280;8720;48.488;9.202;2023-04-19T09:10:59;97343.84;;;17.39;58.11
17209;BME280;8720;48.488;9.202;2023-04-19T09:13:28;97348.31;;;17.57;58.34
17209;BME280;8720;48.488;9.202;2023-04-19T09:15:56;97338.31;;;17.64;58.12
17209;BME280;8720;48.488;9.202;2023-04-19T09:18:25;97339.66;;;17.72;57.72
17209;BME280;8720;48.488;9.202;2023-04-19T09:20:53;97343.16;;;17.73;57.38
17209;BME280;8720;48.488;9.202;2023-04-19T09:23:26;97333.88;;;17.64;57.17
17209;BME280;8720;48.488;9.202;2023-04-19T09:25:58;97334.44;;;17.71;57.20
17209;BME280;8720;48.488;9.202;2023-04-19T09:28:26;97333.28;;;17.76;57.19
17209;BME280;8720;48.488;9.202;2023-04-19T09:30:55;97330.06;;;17.88;57.47
17209;BME280;8720;48.488;9.202;2023-04-19T09:33:31;97328.53;;;18.01;57.23
17209;BME280;8720;48.488;9.202;2023-04-19T09:36:00;97331.75;;;18.08;56.70
17209;BME280;8720;48.488;9.202;2023-04-19T09:38:28;97322.16;;;18.05;56.55
17209;BME280;8720;48.488;9.202;2023-04-19T09:41:11;97324.44;;;18.13;56.72
17209;BME280;8720;48.488;9.202;2023-04-19T09:43:39;97316.28;;;18.17;56.30
17209;BME280;8720;48.488;9.202;2023-04-19T09:46:06;97318.91;;;18.17;56.10
17209;BME280;8720;48.488;9.202;2023-04-19T09:48:34;97308.34;;;18.17;56.16
17209;BME280;8720;48.488;9.202;2023-04-19T09:51:02;97302.34;;;18.14;56.16
17209;BME280;8720;48.488;9.202;2023-04-19T09:53:31;97308.72;;;18.10;56.02
17209;BME280;8720;48.488;9.202;2023-04-19T09:56:00;97297.16;;;18.11;56.16
17209;BME280;8720;48.488;9.202;2023-04-19T09:58:31;97307.06;;;18.07;55.87
17209;BME280;8720;48.488;9.202;2023-04-19T10:00:59;97302.06;;;18.01;55.82
17209;BME280;8720;48.488;9.202;2023-04-19T10:03:29;97295.84;;;18.02;56.06
17209;BME280;8720;48.488;9.202;2023-04-19T10:05:57;97288.59;;;18.06;56.32
17209;BME280;8720;48.488;9.202;2023-04-19T10:08:26;97289.38;;;18.08;55.74
17209;BME280;8720;48.488;9.202;2023-04-19T10:10:54;97296.47;;;18.07;56.04
17209;BME280;8720;48.488;9.202;2023-04-19T10:13:23;97289.53;;;18.05;55.38
17209;BME280;8720;48.488;9.202;2023-04-19T10:15:52;97279.19;;;18.00;55.85
17209;BME280;8720;48.488;9.202;2023-04-19T10:18:20;97279.25;;;17.99;55.94
17209;BME280;8720;48.488;9.202;2023-04-19T10:20:56;97279.00;;;18.03;56.21
17209;BME280;8720;48.488;9.202;2023-04-19T10:23:26;97279.59;;;18.10;55.86
17209;BME280;8720;48.488;9.202;2023-04-19T10:25:56;97279.19;;;18.17;56.05
17209;BME280;8720;48.488;9.202;2023-04-19T10:28:27;97278.66;;;18.28;56.04
17209;BME280;8720;48.488;9.202;2023-04-19T10:31:01;97288.94;;;18.34;55.49
17209;BME280;8720;48.488;9.202;2023-04-19T10:33:34;97283.50;;;18.37;55.65
17209;BME280;8720;48.488;9.202;2023-04-19T10:36:02;97277.16;;;18.40;55.71
17209;BME280;8720;48.488;9.202;2023-04-19T10:38:38;97276.97;;;18.44;55.49
17209;BME280;8720;48.488;9.202;2023-04-19T10:41:06;97272.63;;;18.43;55.43
17209;BME280;8720;48.488;9.202;2023-04-19T10:43:42;97272.81;;;18.39;55.69
17209;BME280;8720;48.488;9.202;2023-04-19T10:46:15;97263.16;;;18.38;55.13
17209;BME280;8720;48.488;9.202;2023-04-19T10:49:01;97262.31;;;18.37;55.95
17209;BME280;8720;48.488;9.202;2023-04-19T10:51:33;97265.75;;;18.39;55.35
17209;BME280;8720;48.488;9.202;2023-04-19T10:54:02;97257.72;;;18.41;55.15
17209;BME280;8720;48.488;9.202;2023-04-19T10:56:58;97249.38;;;18.31;55.69
17209;BME280;8720;48.488;9.202;2023-04-19T10:59:30;97239.25;;;18.22;54.97
17209;BME280;8720;48.488;9.202;2023-04-19T11:02:00;97235.25;;;18.13;54.73
17209;BME280;8720;48.488;9.202;2023-04-19T11:04:59;97244.91;;;18.14;56.00
17209;BME280;8720;48.488;9.202;2023-04-19T11:07:37;97238.53;;;18.01;55.55
17209;BME280;8720;48.488;9.202;2023-04-19T11:10:06;97241.09;;;18.03;55.21
17209;BME280;8720;48.488;9.202;2023-04-19T11:12:34;97235.19;;;17.98;55.60
17209;BME280;8720;48.488;9.202;2023-04-19T11:15:02;97233.22;;;18.01;55.36
17209;BME280;8720;48.488;9.202;2023-04-19T11:17:32;97235.03;;;18.01;55.31
17209;BME280;8720;48.488;9.202;2023-04-19T11:20:05;97230.56;;;18.01;54.80
17209;BME280;8720;48.488;9.202;2023-04-19T11:22:35;97231.53;;;18.00;55.29
17209;BME280;8720;48.488;9.202;2023-04-19T11:25:07;97226.94;;;18.04;54.77
17209;BME280;8720;48.488;9.202;2023-04-19T11:27:36;97221.41;;;18.08;54.99
17209;BME280;8720;48.488;9.202;2023-04-19T11:30:07;97228.72;;;18.21;55.10
17209;BME280;8720;48.488;9.202;2023-04-19T11:32:37;97207.06;;;18.30;55.10
17209;BME280;8720;48.488;9.202;2023-04-19T11:35:10;97207.31;;;18.42;55.12
17209;BME280;8720;48.488;9.202;2023-04-19T11:37:38;97197.56;;;18.60;54.90
17209;BME280;8720;48.488;9.202;2023-04-19T11:40:07;97207.69;;;18.84;54.47
17209;BME280;8720;48.488;9.202;2023-04-19T11:42:35;97204.16;;;19.01;54.10
17209;BME280;8720;48.488;9.202;2023-04-19T11:45:03;97187.81;;;19.09;54.06
17209;BME280;8720;48.488;9.202;2023-04-19T11:47:32;97188.84;;;19.22;53.59
17209;BME280;8720;48.488;9.202;2023-04-19T11:50:32;97190.50;;;19.24;54.91
17209;BME280;8720;48.488;9.202;2023-04-19T11:53:09;97189.53;;;19.25;54.04
17209;BME280;8720;48.488;9.202;2023-04-19T11:55:36;97197.81;;;19.19;53.74
17209;BME280;8720;48.488;9.202;2023-04-19T11:58:06;97180.78;;;19.08;53.33
17209;BME280;8720;48.488;9.202;2023-04-19T12:00:35;97187.63;;;18.96;53.46
17209;BME280;8720;48.488;9.202;2023-04-19T12:03:03;97179.50;;;18.83;53.56
17209;BME280;8720;48.488;9.202;2023-04-19T12:05:32;97177.41;;;18.73;53.88
17209;BME280;8720;48.488;9.202;2023-04-19T12:08:02;97158.13;;;18.54;53.88
17209;BME280;8720;48.488;9.202;2023-04-19T12:10:30;97164.75;;;18.62;53.59
17209;BME280;8720;48.488;9.202;2023-04-19T12:12:57;97174.16;;;18.68;54.19
17209;BME280;8720;48.488;9.202;2023-04-19T12:15:41;97176.53;;;18.72;54.53
17209;BME280;8720;48.488;9.202;2023-04-19T12:18:08;97160.25;;;18.80;54.47
17209;BME280;8720;48.488;9.202;2023-04-19T12:20:43;97175.75;;;18.87;54.05
17209;BME280;8720;48.488;9.202;2023-04-19T12:23:12;97170.13;;;18.93;54.37
17209;BME280;8720;48.488;9.202;2023-04-19T12:25:42;97161.09;;;18.96;53.79
17209;BME280;8720;48.488;9.202;2023-04-19T12:28:10;97168.13;;;18.97;53.31
17209;BME280;8720;48.488;9.202;2023-04-19T12:30:38;97160.50;;;18.91;53.65
17209;BME280;8720;48.488;9.202;2023-04-19T12:33:07;97158.78;;;18.90;53.87
17209;BME280;8720;48.488;9.202;2023-04-19T15:28:33;97104.03;;;12.59;65.88
17209;BME280;8720;48.488;9.202;2023-04-19T15:31:04;97108.91;;;12.71;65.61
17209;BME280;8720;48.488;9.202;2023-04-19T15:33:33;97109.50;;;12.81;65.40
